createdAt,value
2019-01-23T00:00:51.969Z,36.88
2019-01-23T00:03:25.008Z,36.63
2019-01-23T00:05:57.877Z,36.93
2019-01-23T00:08:32.170Z,34.27
2019-01-23T00:11:05.345Z,35.97
2019-01-23T00:13:38.331Z,35.90
2019-01-23T00:16:11.820Z,34.90
2019-01-23T00:18:46.789Z,36.03
2019-01-23T00:21:19.648Z,34.13
2019-01-23T00:23:53.160Z,37.40
2019-01-23T00:26:25.990Z,35.67
2019-01-23T00:28:58.943Z,37.05
2019-01-23T00:31:32.372Z,35.43
2019-01-23T00:34:05.591Z,34.97
2019-01-23T00:36:39.488Z,36.30
2019-01-23T00:39:13.025Z,34.77
2019-01-23T00:41:45.916Z,34.70
2019-01-23T00:44:18.936Z,37.00
2019-01-23T00:46:53.817Z,35.63
2019-01-23T00:49:26.740Z,34.20
2019-01-23T00:52:00.828Z,36.43
2019-01-23T00:54:36.516Z,36.15
2019-01-23T00:57:09.337Z,35.30
2019-01-23T00:59:43.191Z,34.97
2019-01-23T01:02:16.882Z,34.47
2019-01-23T01:04:49.769Z,34.43
2019-01-23T01:07:22.819Z,34.50
2019-01-23T01:09:56.367Z,37.00
2019-01-23T01:12:29.704Z,34.83
2019-01-23T01:15:05.178Z,34.53
2019-01-23T01:17:38.407Z,35.33
2019-01-23T01:20:12.163Z,34.13
2019-01-23T01:22:45.293Z,33.63
2019-01-23T01:25:19.650Z,34.50
2019-01-23T01:27:52.640Z,35.40
2019-01-23T01:30:26.321Z,35.17
2019-01-23T01:33:00.903Z,33.00
2019-01-23T01:35:33.796Z,32.47
2019-01-23T01:38:06.883Z,32.87
2019-01-23T01:40:43.450Z,32.00
2019-01-23T01:43:16.492Z,31.73
2019-01-23T01:45:49.780Z,33.47
2019-01-23T01:48:23.517Z,35.22
2019-01-23T01:50:57.579Z,32.73
2019-01-23T01:53:30.388Z,30.80
2019-01-23T01:56:04.116Z,31.70
2019-01-23T01:58:37.312Z,34.00
2019-01-23T02:01:10.212Z,30.13
2019-01-23T02:03:43.788Z,30.27
2019-01-23T02:06:16.777Z,30.40
2019-01-23T02:08:49.557Z,30.85
2019-01-23T02:11:22.960Z,29.43
2019-01-23T02:13:56.400Z,30.13
2019-01-23T02:16:30.020Z,30.77
2019-01-23T02:19:03.483Z,28.20
2019-01-23T02:21:36.537Z,29.03
2019-01-23T02:24:09.377Z,29.27
2019-01-23T02:26:42.568Z,28.80
2019-01-23T02:29:15.452Z,28.20
2019-01-23T02:31:48.289Z,28.73
2019-01-23T02:34:21.674Z,27.63
2019-01-23T02:36:54.733Z,28.03
2019-01-23T02:39:27.652Z,29.90
2019-01-23T02:42:01.056Z,27.07
2019-01-23T02:44:33.796Z,28.23
2019-01-23T02:47:07.044Z,27.63
2019-01-23T02:49:40.597Z,27.10
2019-01-23T02:52:13.543Z,28.40
2019-01-23T02:54:46.519Z,27.30
2019-01-23T02:57:20.795Z,27.40
2019-01-23T02:59:54.384Z,27.63
2019-01-23T03:02:27.280Z,28.77
2019-01-23T03:05:01.598Z,29.20
2019-01-23T03:07:36.500Z,27.83
2019-01-23T03:10:13.697Z,27.93
2019-01-23T03:12:46.902Z,28.12
2019-01-23T03:15:20.169Z,28.37
2019-01-23T03:17:53.001Z,28.47
2019-01-23T03:20:26.097Z,28.33
2019-01-23T03:22:59.590Z,27.40
2019-01-23T03:25:32.394Z,28.30
2019-01-23T03:28:05.389Z,27.77
2019-01-23T03:30:39.707Z,27.53
2019-01-23T03:33:12.522Z,26.80
2019-01-23T03:35:45.377Z,27.70
2019-01-23T03:38:18.749Z,27.37
2019-01-23T03:40:51.583Z,29.07
2019-01-23T03:43:24.510Z,28.20
2019-01-23T03:45:57.924Z,27.93
2019-01-23T03:48:30.904Z,26.77
2019-01-23T03:51:04.032Z,26.50
2019-01-23T03:53:37.476Z,27.23
2019-01-23T03:56:10.337Z,29.30
2019-01-23T03:58:43.496Z,27.87
2019-01-23T04:01:16.837Z,28.27
2019-01-23T04:03:49.943Z,29.27
2019-01-23T04:06:22.795Z,27.27
2019-01-23T04:08:56.266Z,26.73
2019-01-23T04:11:29.952Z,28.50
2019-01-23T04:14:03.382Z,27.67
2019-01-23T04:16:37.467Z,28.03
2019-01-23T04:19:10.441Z,28.00
2019-01-23T04:21:43.443Z,28.10
2019-01-23T04:24:17.754Z,29.15
2019-01-23T04:26:51.430Z,27.20
2019-01-23T04:29:26.216Z,29.60
2019-01-23T04:31:59.552Z,28.20
2019-01-23T04:34:32.435Z,26.43
2019-01-23T04:37:06.026Z,27.93
2019-01-23T04:39:39.419Z,28.93
2019-01-23T04:42:12.980Z,28.23
2019-01-23T04:44:46.123Z,28.73
2019-01-23T04:47:19.245Z,28.17
2019-01-23T04:49:52.238Z,28.53
2019-01-23T04:52:31.008Z,28.63
2019-01-23T04:55:04.493Z,27.87
2019-01-23T04:57:37.378Z,29.95
2019-01-23T05:00:14.917Z,28.73
2019-01-23T05:02:48.598Z,29.13
2019-01-23T05:05:21.764Z,27.20
2019-01-23T05:07:54.621Z,29.20
2019-01-23T05:10:27.550Z,29.13
2019-01-23T05:13:00.947Z,30.07
2019-01-23T05:15:35.530Z,29.90
2019-01-23T05:18:10.327Z,29.73
2019-01-23T05:20:43.817Z,38.50
2019-01-23T05:23:16.661Z,30.07
2019-01-23T05:25:53.151Z,32.83
2019-01-23T05:28:26.448Z,29.10
2019-01-23T05:31:00.374Z,29.93
2019-01-23T05:33:33.221Z,28.73
2019-01-23T05:36:06.768Z,29.47
2019-01-23T05:38:39.636Z,30.63
2019-01-23T05:41:13.284Z,31.27
2019-01-23T05:43:46.947Z,30.13
2019-01-23T05:46:23.576Z,29.63
2019-01-23T05:48:56.524Z,30.73
2019-01-23T05:51:29.904Z,29.60
2019-01-23T05:54:03.381Z,28.57
2019-01-23T05:56:36.691Z,30.37
2019-01-23T05:59:10.752Z,30.90
2019-01-23T06:01:44.331Z,29.43
2019-01-23T06:04:17.314Z,30.27
2019-01-23T06:06:50.269Z,29.57
2019-01-23T06:09:23.112Z,30.23
2019-01-23T06:11:56.037Z,31.37
2019-01-23T06:14:28.776Z,30.27
2019-01-23T06:17:03.047Z,29.63
2019-01-23T06:19:36.022Z,29.83
2019-01-23T06:22:12.073Z,31.27
2019-01-23T06:24:45.253Z,30.13
2019-01-23T06:27:19.136Z,30.73
2019-01-23T06:29:54.427Z,29.73
2019-01-23T06:32:28.401Z,30.97
2019-01-23T06:35:01.510Z,31.50
2019-01-23T06:37:35.599Z,32.37
2019-01-23T06:40:10.612Z,32.40
2019-01-23T06:42:43.487Z,31.20
2019-01-23T06:45:18.508Z,32.00
2019-01-23T06:47:51.789Z,31.20
2019-01-23T06:50:24.757Z,32.37
2019-01-23T06:52:58.173Z,33.47
2019-01-23T06:55:31.339Z,31.37
2019-01-23T06:58:05.522Z,30.80
2019-01-23T07:00:39.755Z,31.60
2019-01-23T07:03:15.181Z,31.83
2019-01-23T07:05:48.963Z,33.93
2019-01-23T07:08:23.066Z,31.37
2019-01-23T07:10:56.045Z,31.63
2019-01-23T07:13:30.133Z,32.90
2019-01-23T07:16:03.536Z,32.87
2019-01-23T07:18:37.769Z,32.77
2019-01-23T07:21:10.656Z,32.50
2019-01-23T07:23:45.642Z,35.15
2019-01-23T07:26:19.869Z,34.10
2019-01-23T07:28:53.476Z,32.53
2019-01-23T07:31:27.313Z,34.23
2019-01-23T07:34:04.964Z,33.97
2019-01-23T07:36:39.022Z,33.70
2019-01-23T07:39:15.552Z,32.37
2019-01-23T07:41:48.880Z,35.03
2019-01-23T07:44:24.413Z,33.50
2019-01-23T07:46:58.548Z,31.53
2019-01-23T07:49:31.953Z,32.80
2019-01-23T07:52:06.300Z,33.73
2019-01-23T07:54:39.210Z,35.67
2019-01-23T07:57:13.326Z,33.03
2019-01-23T07:59:46.919Z,33.83
2019-01-23T08:02:22.186Z,32.77
2019-01-23T08:04:58.896Z,33.77
2019-01-23T08:07:31.848Z,33.37
2019-01-23T08:10:10.593Z,31.13
2019-01-23T08:12:43.958Z,33.30
2019-01-23T08:15:26.377Z,31.87
2019-01-23T08:17:59.578Z,29.60
2019-01-23T08:20:33.520Z,31.63
2019-01-23T08:23:06.441Z,30.53
2019-01-23T08:25:39.916Z,31.77
2019-01-23T08:28:13.891Z,31.13
2019-01-23T08:30:48.617Z,31.13
2019-01-23T08:33:23.261Z,30.13
2019-01-23T08:35:56.627Z,32.03
2019-01-23T08:38:32.487Z,30.57
2019-01-23T08:41:07.296Z,30.63
2019-01-23T08:43:41.404Z,29.80
2019-01-23T08:46:15.981Z,29.50
2019-01-23T08:48:53.681Z,31.10
2019-01-23T08:51:30.453Z,29.60
2019-01-23T08:54:03.993Z,30.07
2019-01-23T08:56:37.994Z,27.97
2019-01-23T08:59:12.993Z,27.57
2019-01-23T09:01:47.805Z,27.43
2019-01-23T09:04:22.173Z,27.03
2019-01-23T09:06:58.676Z,27.50
2019-01-23T09:09:33.492Z,27.83
2019-01-23T09:12:08.663Z,27.13
2019-01-23T09:14:41.561Z,28.40
2019-01-23T09:17:16.818Z,27.50
2019-01-23T09:19:50.985Z,27.97
2019-01-23T09:22:30.048Z,28.27
2019-01-23T09:25:04.749Z,27.53
2019-01-23T09:27:38.800Z,27.73
2019-01-23T09:30:32.446Z,26.60
2019-01-23T09:34:09.065Z,25.90
2019-01-23T09:37:59.139Z,28.23
2019-01-23T09:40:58.895Z,26.87
2019-01-23T09:44:12.409Z,25.80
2019-01-23T09:47:37.793Z,27.17
2019-01-23T09:51:21.019Z,27.20
2019-01-23T09:54:09.105Z,26.17
2019-01-23T09:56:48.032Z,25.40
2019-01-23T09:59:30.126Z,25.00
2019-01-23T10:02:04.414Z,24.97
2019-01-23T10:04:38.863Z,25.10
2019-01-23T10:07:22.071Z,24.63
2019-01-23T10:09:55.038Z,25.30
2019-01-23T10:12:30.593Z,24.03
2019-01-23T10:15:08.096Z,25.70
2019-01-23T10:17:42.859Z,25.07
2019-01-23T10:20:16.099Z,24.63
2019-01-23T10:22:53.168Z,24.07
2019-01-23T10:25:26.701Z,24.57
2019-01-23T10:28:00.614Z,23.67
2019-01-23T10:30:40.329Z,25.03
2019-01-23T10:33:17.411Z,23.27
2019-01-23T10:35:53.676Z,23.85
2019-01-23T10:38:29.585Z,22.37
2019-01-23T10:41:03.913Z,22.83
2019-01-23T10:43:36.797Z,22.53
2019-01-23T10:46:10.138Z,23.23
2019-01-23T10:48:46.941Z,23.43
2019-01-23T10:51:20.850Z,23.77
2019-01-23T10:53:53.662Z,21.73
2019-01-23T10:56:30.532Z,23.73
2019-01-23T10:59:04.547Z,23.47
2019-01-23T11:01:39.779Z,23.13
2019-01-23T11:04:13.413Z,24.30
2019-01-23T11:06:46.472Z,24.05
2019-01-23T11:09:20.903Z,23.00
2019-01-23T11:11:57.496Z,23.37
2019-01-23T11:14:31.659Z,23.57
2019-01-23T11:17:08.682Z,22.43
2019-01-23T11:19:46.409Z,21.67
2019-01-23T11:22:22.110Z,22.87
2019-01-23T11:25:01.916Z,22.90
2019-01-23T11:27:40.371Z,21.63
2019-01-23T11:30:25.785Z,23.85
2019-01-23T11:33:00.124Z,24.13
2019-01-23T11:35:35.597Z,24.07
2019-01-23T11:38:13.455Z,22.50
2019-01-23T11:40:52.328Z,23.60
2019-01-23T11:43:27.565Z,22.77
2019-01-23T11:46:01.973Z,23.37
2019-01-23T11:48:39.084Z,22.77
2019-01-23T11:51:14.506Z,22.80
2019-01-23T11:53:49.604Z,22.80
2019-01-23T11:56:25.963Z,22.73
2019-01-23T11:58:58.826Z,22.90
2019-01-23T12:01:34.740Z,23.90
2019-01-23T12:04:07.808Z,22.57
2019-01-23T12:06:42.547Z,22.63
2019-01-23T12:09:18.723Z,22.47
2019-01-23T12:11:52.735Z,21.57
2019-01-23T12:14:29.120Z,21.73
2019-01-23T12:17:05.282Z,22.03
2019-01-23T12:19:38.316Z,22.90
2019-01-23T12:22:11.908Z,21.63
2019-01-23T12:24:46.213Z,22.90
2019-01-23T12:27:19.774Z,22.50
2019-01-23T12:29:55.611Z,21.73
2019-01-23T12:32:34.694Z,22.27
2019-01-23T12:35:10.199Z,22.57
2019-01-23T12:37:45.157Z,24.87
2019-01-23T12:40:21.877Z,22.90
2019-01-23T12:42:57.663Z,21.87
2019-01-23T12:45:31.420Z,21.07
2019-01-23T12:48:05.892Z,21.70
2019-01-23T12:50:39.617Z,21.43
2019-01-23T12:53:14.630Z,21.70
2019-01-23T12:55:51.393Z,21.77
2019-01-23T12:58:25.534Z,21.97
2019-01-23T13:00:59.810Z,22.83
2019-01-23T13:03:35.186Z,22.47
2019-01-23T13:06:10.435Z,22.13
2019-01-23T13:08:44.288Z,23.07
2019-01-23T13:11:20.420Z,23.87
2019-01-23T13:14:04.073Z,23.10
2019-01-23T13:16:38.152Z,24.13
2019-01-23T13:19:13.511Z,24.57
2019-01-23T13:21:49.175Z,24.77
2019-01-23T13:24:23.784Z,24.40
2019-01-23T13:27:07.210Z,24.53
2019-01-23T13:29:49.965Z,24.73
2019-01-23T13:32:24.414Z,25.35
2019-01-23T13:34:59.917Z,24.27
2019-01-23T13:37:37.788Z,23.17
2019-01-23T13:40:23.067Z,23.65
2019-01-23T13:42:57.891Z,23.50
2019-01-23T13:45:32.363Z,22.77
2019-01-23T13:48:11.729Z,22.50
2019-01-23T13:50:45.782Z,21.63
2019-01-23T13:53:19.749Z,23.00
2019-01-23T13:55:56.008Z,22.97
2019-01-23T13:58:29.667Z,23.73
2019-01-23T14:01:02.598Z,22.83
2019-01-23T14:03:37.887Z,23.57
2019-01-23T14:06:10.842Z,25.20
2019-01-23T14:08:44.851Z,25.97
2019-01-23T14:11:18.486Z,25.50
2019-01-23T14:13:52.561Z,24.77
2019-01-23T14:16:29.282Z,25.55
2019-01-23T14:19:02.524Z,28.17
2019-01-23T14:21:36.212Z,27.57
2019-01-23T14:24:12.611Z,27.20
2019-01-23T14:26:48.100Z,27.40
2019-01-23T14:29:23.608Z,27.03
2019-01-23T14:32:03.040Z,25.67
2019-01-23T14:34:38.253Z,25.00
2019-01-23T14:37:12.835Z,26.63
2019-01-23T14:39:46.815Z,25.30
2019-01-23T14:42:22.478Z,26.47
2019-01-23T14:45:18.707Z,25.67
2019-01-23T14:48:15.403Z,25.23
2019-01-23T14:51:03.897Z,26.58
2019-01-23T14:53:59.354Z,26.27
2019-01-23T14:56:34.704Z,24.93
2019-01-23T14:59:10.615Z,25.27
2019-01-23T15:01:44.711Z,24.57
2019-01-23T15:04:19.614Z,24.53
2019-01-23T15:06:54.185Z,23.73
2019-01-23T15:09:36.485Z,25.20
2019-01-23T15:12:11.756Z,25.23
2019-01-23T15:14:47.152Z,25.13
2019-01-23T15:17:22.900Z,23.90
2019-01-23T15:19:56.204Z,25.07
2019-01-23T15:22:31.589Z,24.20
2019-01-23T15:25:06.204Z,24.13
2019-01-23T15:27:40.445Z,25.13
2019-01-23T15:30:25.099Z,25.53
2019-01-23T15:32:58.253Z,26.83
2019-01-23T15:35:34.012Z,25.60
2019-01-23T15:38:17.318Z,27.03
2019-01-23T15:40:51.582Z,26.37
2019-01-23T15:43:32.871Z,25.07
2019-01-23T15:46:10.157Z,24.83
2019-01-23T15:48:48.949Z,25.77
2019-01-23T15:51:23.006Z,25.23
2019-01-23T15:53:56.219Z,26.17
2019-01-23T15:56:32.931Z,26.33
2019-01-23T15:59:06.487Z,26.67
2019-01-23T16:01:43.540Z,28.70
2019-01-23T16:04:16.511Z,28.30
2019-01-23T16:06:49.691Z,30.00
2019-01-23T16:09:25.590Z,30.23
2019-01-23T16:12:09.459Z,30.90
2019-01-23T16:14:50.617Z,29.67
2019-01-23T16:17:27.641Z,30.17
2019-01-23T16:20:03.344Z,31.67
2019-01-23T16:22:37.111Z,31.63
2019-01-23T16:25:14.736Z,31.10
2019-01-23T16:27:51.367Z,31.97
2019-01-23T16:30:32.636Z,31.97
2019-01-23T16:33:13.586Z,30.57
2019-01-23T16:35:48.213Z,32.30
2019-01-23T16:38:25.495Z,31.77
2019-01-23T16:40:59.405Z,30.67
2019-01-23T16:43:32.415Z,31.57
2019-01-23T16:46:06.940Z,32.00
2019-01-23T16:48:42.423Z,32.43
2019-01-23T16:51:15.964Z,33.23
2019-01-23T16:53:50.568Z,34.75
2019-01-23T16:56:25.367Z,35.20
2019-01-23T16:59:03.942Z,34.72
2019-01-23T17:01:38.124Z,36.83
2019-01-23T17:04:15.304Z,36.60
2019-01-23T17:06:50.925Z,36.63
2019-01-23T17:09:28.397Z,35.53
2019-01-23T17:12:01.482Z,35.80
2019-01-23T17:14:36.797Z,36.40
2019-01-23T17:17:11.173Z,37.10
2019-01-23T17:19:44.605Z,37.05
2019-01-23T17:22:19.140Z,38.27
2019-01-23T17:24:58.102Z,38.70
2019-01-23T17:27:34.064Z,37.60
2019-01-23T17:30:10.290Z,37.70
2019-01-23T17:32:47.413Z,37.53
2019-01-23T17:35:25.396Z,37.90
2019-01-23T17:37:59.910Z,39.38
2019-01-23T17:40:36.600Z,37.03
2019-01-23T17:43:13.532Z,34.40
2019-01-23T17:45:47.773Z,35.17
2019-01-23T17:48:24.219Z,33.03
2019-01-23T17:50:59.765Z,33.20
2019-01-23T17:53:33.851Z,32.90
2019-01-23T17:56:12.834Z,31.23
2019-01-23T17:58:50.969Z,30.20
2019-01-23T18:01:26.021Z,32.47
2019-01-23T18:04:07.175Z,31.60
2019-01-23T18:06:42.279Z,31.52
2019-01-23T18:09:17.760Z,32.20
2019-01-23T18:11:55.362Z,31.70
2019-01-23T18:14:32.463Z,29.87
2019-01-23T18:17:11.529Z,31.37
2019-01-23T18:19:51.607Z,29.53
2019-01-23T18:22:29.879Z,29.50
2019-01-23T18:25:08.435Z,31.47
2019-01-23T18:27:49.709Z,30.73
2019-01-23T18:30:39.545Z,31.98
2019-01-23T18:33:27.860Z,32.30
2019-01-23T18:36:49.236Z,32.33
2019-01-23T18:40:04.998Z,31.97
2019-01-23T18:43:28.809Z,31.73
2019-01-23T18:46:52.575Z,32.03
2019-01-23T18:50:46.065Z,33.50
2019-01-23T18:53:39.118Z,35.25
2019-01-23T18:56:14.711Z,34.77
2019-01-23T18:58:53.761Z,33.13
2019-01-23T19:01:30.079Z,34.33
2019-01-23T19:04:06.989Z,34.17
2019-01-23T19:07:00.401Z,34.50
2019-01-23T19:09:37.505Z,37.10
2019-01-23T19:12:10.666Z,37.63
2019-01-23T19:14:46.143Z,37.23
2019-01-23T19:17:21.722Z,37.73
2019-01-23T19:19:54.775Z,36.53
2019-01-23T19:22:31.404Z,34.30
2019-01-23T19:25:05.917Z,35.30
2019-01-23T19:27:44.206Z,36.00
2019-01-23T19:30:21.894Z,35.50
2019-01-23T19:32:57.201Z,37.28
2019-01-23T19:35:34.258Z,35.13
2019-01-23T19:38:10.849Z,35.37
2019-01-23T19:40:49.588Z,32.73
2019-01-23T19:43:22.711Z,34.20
2019-01-23T19:45:58.011Z,33.50
2019-01-23T19:48:31.813Z,35.63
2019-01-23T19:51:06.926Z,34.47
2019-01-23T19:53:45.015Z,34.40
2019-01-23T19:56:19.019Z,34.33
2019-01-23T19:58:55.110Z,34.57
2019-01-23T20:01:29.183Z,34.87
2019-01-23T20:04:02.932Z,33.37
2019-01-23T20:06:40.236Z,33.63
2019-01-23T20:09:16.897Z,33.90
2019-01-23T20:11:52.637Z,33.57
2019-01-23T20:14:32.166Z,36.13
2019-01-23T20:17:07.486Z,34.60
2019-01-23T20:19:40.588Z,32.17
2019-01-23T20:22:16.045Z,34.60
2019-01-23T20:24:54.649Z,35.63
2019-01-23T20:27:37.619Z,34.70
2019-01-23T20:30:26.891Z,33.30
2019-01-23T20:33:01.004Z,33.13
2019-01-23T20:35:37.313Z,34.60
2019-01-23T20:38:21.585Z,34.30
2019-01-23T20:40:55.552Z,35.33
2019-01-23T20:43:32.059Z,35.65
2019-01-23T20:46:06.510Z,35.23
2019-01-23T20:48:40.533Z,33.57
2019-01-23T20:51:16.752Z,34.43
2019-01-23T20:53:51.383Z,33.87
2019-01-23T20:56:24.383Z,34.70
2019-01-23T20:58:59.238Z,34.60
2019-01-23T21:01:33.511Z,34.63
2019-01-23T21:04:06.696Z,32.57
2019-01-23T21:06:41.309Z,32.07
2019-01-23T21:09:14.462Z,33.47
2019-01-23T21:11:48.781Z,34.93
2019-01-23T21:14:23.107Z,33.07
2019-01-23T21:16:57.547Z,32.53
2019-01-23T21:19:34.674Z,32.93
2019-01-23T21:22:09.239Z,35.55
2019-01-23T21:24:43.391Z,33.37
2019-01-23T21:27:16.597Z,34.57
2019-01-23T21:29:55.263Z,33.07
2019-01-23T21:32:39.210Z,32.97
2019-01-23T21:35:16.195Z,31.07
2019-01-23T21:37:53.634Z,33.90
2019-01-23T21:40:31.990Z,33.47
2019-01-23T21:43:06.687Z,33.13
2019-01-23T21:45:44.846Z,32.80
2019-01-23T21:48:17.762Z,32.63
2019-01-23T21:50:51.024Z,32.97
2019-01-23T21:53:26.562Z,33.20
2019-01-23T21:56:04.683Z,31.70
2019-01-23T21:58:39.480Z,35.58
2019-01-23T22:01:14.750Z,33.60
2019-01-23T22:03:49.347Z,32.70
2019-01-23T22:06:23.540Z,30.63
2019-01-23T22:09:01.292Z,32.70
2019-01-23T22:11:43.461Z,35.65
2019-01-23T22:14:19.141Z,33.10
2019-01-23T22:16:54.061Z,33.00
2019-01-23T22:19:28.197Z,32.13
2019-01-23T22:22:00.832Z,30.70
2019-01-23T22:24:35.000Z,31.87
2019-01-23T22:27:08.109Z,30.43
2019-01-23T22:29:42.168Z,31.03
2019-01-23T22:32:17.356Z,31.47
2019-01-23T22:34:50.262Z,30.53
2019-01-23T22:37:26.559Z,33.70
2019-01-23T22:40:07.812Z,32.07
2019-01-23T22:42:42.509Z,31.63
2019-01-23T22:45:19.777Z,32.03
2019-01-23T22:47:53.277Z,33.10
2019-01-23T22:50:29.604Z,30.97
2019-01-23T22:53:02.984Z,31.57
2019-01-23T22:55:39.096Z,34.10
2019-01-23T22:58:14.769Z,34.47
2019-01-23T23:01:11.111Z,33.17
2019-01-23T23:03:44.417Z,32.33
2019-01-23T23:06:22.438Z,33.10
2019-01-23T23:09:00.188Z,31.70
2019-01-23T23:11:34.414Z,33.90
2019-01-23T23:14:08.195Z,33.47
2019-01-23T23:16:41.099Z,32.00
2019-01-23T23:19:14.149Z,33.90
2019-01-23T23:21:48.577Z,33.67
2019-01-23T23:24:21.815Z,33.83
2019-01-23T23:26:55.312Z,34.37
2019-01-23T23:29:28.665Z,34.13
2019-01-23T23:32:03.476Z,34.80
2019-01-23T23:34:38.983Z,32.93
2019-01-23T23:37:13.401Z,33.03
2019-01-23T23:39:47.901Z,33.63
2019-01-23T23:42:20.841Z,34.37
2019-01-23T23:44:56.679Z,33.87
2019-01-23T23:47:30.832Z,34.40
2019-01-23T23:50:06.663Z,32.17
2019-01-23T23:52:40.748Z,33.60
2019-01-23T23:55:14.716Z,34.50
2019-01-23T23:57:49.032Z,34.63
